createdAt,value
2023-12-14T00:01:26.992Z,67.58
2023-12-14T00:06:30.881Z,67.31
2023-12-14T00:11:34.569Z,67.39
2023-12-14T00:16:39.818Z,67.38
2023-12-14T00:21:43.488Z,67.06
2023-12-14T00:26:47.283Z,67.24
2023-12-14T00:31:52.526Z,67.00
2023-12-14T00:36:56.180Z,66.87
2023-12-14T00:41:59.814Z,66.75
2023-12-14T00:47:05.199Z,66.84
2023-12-14T00:52:08.866Z,66.10
2023-12-14T00:57:12.767Z,66.05
2023-12-14T01:02:17.981Z,66.66
2023-12-14T01:07:21.675Z,66.61
2023-12-14T01:12:25.281Z,67.30
2023-12-14T01:17:30.706Z,67.51
2023-12-14T01:22:34.729Z,67.03
2023-12-14T01:27:39.195Z,67.06
2023-12-14T01:32:44.693Z,66.91
2023-12-14T01:37:48.947Z,68.07
2023-12-14T01:42:52.694Z,67.79
2023-12-14T01:47:57.782Z,68.33
2023-12-14T01:53:01.797Z,67.89
2023-12-14T01:58:05.627Z,68.83
2023-12-14T02:03:11.084Z,67.89
2023-12-14T02:08:14.956Z,68.19
2023-12-14T02:13:18.641Z,68.36
2023-12-14T02:18:23.969Z,68.69
2023-12-14T02:23:29.099Z,67.46
2023-12-14T02:28:32.696Z,67.28
2023-12-14T02:33:36.800Z,67.37
2023-12-14T02:38:42.064Z,66.82
2023-12-14T02:43:45.840Z,67.54
2023-12-14T02:48:49.586Z,67.15
2023-12-14T02:53:54.861Z,67.72
2023-12-14T02:58:58.673Z,67.49
2023-12-14T03:04:02.302Z,67.99
2023-12-14T03:09:07.372Z,67.45
2023-12-14T03:14:11.211Z,67.70
2023-12-14T03:19:15.226Z,68.25
2023-12-14T03:24:20.319Z,68.73
2023-12-14T03:29:23.935Z,68.74
2023-12-14T03:34:27.840Z,68.56
2023-12-14T03:39:32.947Z,67.63
2023-12-14T03:44:36.704Z,68.22
2023-12-14T03:49:41.101Z,67.85
2023-12-14T03:54:46.187Z,67.93
2023-12-14T03:59:49.987Z,67.91
2023-12-14T04:04:53.728Z,67.59
2023-12-14T04:09:59.010Z,67.93
2023-12-14T04:15:02.634Z,67.47
2023-12-14T04:20:09.677Z,67.30
2023-12-14T04:25:14.986Z,67.64
2023-12-14T04:30:18.851Z,67.98
2023-12-14T04:35:23.469Z,66.72
2023-12-14T04:40:28.784Z,67.09
2023-12-14T04:45:32.609Z,67.35
2023-12-14T04:50:36.198Z,67.47
2023-12-14T04:55:42.935Z,67.59
2023-12-14T05:00:46.906Z,66.88
2023-12-14T05:05:50.518Z,67.32
2023-12-14T05:10:55.636Z,67.60
2023-12-14T05:15:59.951Z,67.42
2023-12-14T05:21:03.611Z,67.23
2023-12-14T05:26:08.821Z,67.46
2023-12-14T05:31:12.472Z,67.70
2023-12-14T05:36:16.292Z,67.03
2023-12-14T05:41:21.681Z,67.44
2023-12-14T05:46:25.990Z,67.24
2023-12-14T05:51:30.351Z,67.54
2023-12-14T05:56:38.275Z,67.32
2023-12-14T06:01:44.647Z,67.59
2023-12-14T06:06:48.464Z,67.47
2023-12-14T06:11:53.733Z,67.65
2023-12-14T06:16:57.787Z,66.75
2023-12-14T06:22:01.695Z,66.42
2023-12-14T06:27:07.320Z,66.38
2023-12-14T06:32:11.022Z,66.39
2023-12-14T06:37:14.989Z,66.41
2023-12-14T06:42:20.219Z,66.02
2023-12-14T06:47:24.087Z,66.76
2023-12-14T06:52:27.793Z,66.64
2023-12-14T06:57:33.039Z,65.79
2023-12-14T07:02:37.214Z,65.50
2023-12-14T07:07:42.154Z,66.25
2023-12-14T07:12:48.166Z,66.10
2023-12-14T07:17:51.794Z,65.61
2023-12-14T07:22:55.667Z,65.48
2023-12-14T07:28:00.883Z,65.17
2023-12-14T07:33:05.478Z,64.86
2023-12-14T07:38:11.277Z,64.71
2023-12-14T07:43:16.573Z,65.07
2023-12-14T07:48:20.406Z,65.54
2023-12-14T07:53:24.346Z,65.21
2023-12-14T07:58:29.672Z,64.68
2023-12-14T08:03:33.589Z,65.33
2023-12-14T08:08:39.049Z,65.45
2023-12-14T08:13:44.160Z,65.29
2023-12-14T08:18:49.815Z,65.00
2023-12-14T08:23:53.693Z,65.13
2023-12-14T08:28:58.811Z,65.05
2023-12-14T08:34:02.713Z,64.90
2023-12-14T08:39:06.977Z,65.66
2023-12-14T08:44:12.129Z,64.92
2023-12-14T08:49:16.805Z,65.52
2023-12-14T08:54:20.803Z,65.64
2023-12-14T08:59:26.288Z,64.26
2023-12-14T09:04:30.085Z,64.13
2023-12-14T09:09:34.100Z,64.62
2023-12-14T09:14:39.243Z,64.28
2023-12-14T09:19:42.897Z,64.60
2023-12-14T09:24:46.520Z,64.63
2023-12-14T09:29:51.562Z,64.23
2023-12-14T09:34:58.047Z,63.77
2023-12-14T09:40:01.731Z,63.89
2023-12-14T09:45:10.005Z,63.54
2023-12-14T09:50:15.679Z,64.12
2023-12-14T09:55:19.525Z,64.62
2023-12-14T10:00:37.839Z,64.95
2023-12-14T10:05:42.100Z,65.37
2023-12-14T10:10:46.069Z,65.14
2023-12-14T10:15:51.815Z,65.54
2023-12-14T10:20:55.528Z,65.71
2023-12-14T10:26:00.438Z,65.03
2023-12-14T10:31:06.758Z,65.15
2023-12-14T10:36:12.510Z,65.43
2023-12-14T10:41:16.676Z,66.02
2023-12-14T10:46:22.830Z,65.49
2023-12-14T10:51:28.961Z,65.02
2023-12-14T10:56:33.386Z,65.41
2023-12-14T11:01:40.912Z,65.25
2023-12-14T11:06:48.608Z,65.44
2023-12-14T11:12:01.494Z,64.61
2023-12-14T11:17:09.477Z,64.10
2023-12-14T11:22:26.378Z,64.08
2023-12-14T11:27:32.288Z,64.43
2023-12-14T11:32:38.562Z,64.52
2023-12-14T11:37:43.068Z,64.45
2023-12-14T11:42:47.764Z,64.07
2023-12-14T11:47:52.852Z,63.73
2023-12-14T11:52:58.682Z,64.85
2023-12-14T11:58:02.548Z,63.92
2023-12-14T12:03:16.140Z,63.77
2023-12-14T12:08:22.250Z,64.58
2023-12-14T12:13:26.227Z,63.79
2023-12-14T12:18:31.544Z,64.61
2023-12-14T12:23:35.253Z,64.82
2023-12-14T12:28:40.048Z,64.38
2023-12-14T12:33:45.069Z,64.66
2023-12-14T12:38:49.012Z,64.46
2023-12-14T12:43:52.803Z,65.03
2023-12-14T12:48:57.953Z,64.88
2023-12-14T12:54:10.169Z,65.16
2023-12-14T12:59:18.402Z,65.16
2023-12-14T13:04:24.677Z,64.50
2023-12-14T13:09:28.773Z,65.04
2023-12-14T13:14:33.291Z,65.39
2023-12-14T13:19:38.292Z,65.03
2023-12-14T13:24:42.094Z,64.58
2023-12-14T13:29:46.828Z,64.33
2023-12-14T13:34:51.972Z,65.00
2023-12-14T13:39:55.842Z,64.63
2023-12-14T13:44:59.485Z,64.97
2023-12-14T13:50:06.101Z,64.67
2023-12-14T13:55:10.311Z,63.93
2023-12-14T14:00:15.588Z,64.15
2023-12-14T14:05:20.739Z,64.94
2023-12-14T14:10:24.534Z,65.05
2023-12-14T14:15:28.288Z,65.58
2023-12-14T14:20:33.886Z,64.53
2023-12-14T14:25:37.763Z,65.72
2023-12-14T14:30:41.785Z,65.86
2023-12-14T14:35:47.090Z,66.07
2023-12-14T14:40:50.844Z,65.73
2023-12-14T14:45:54.479Z,66.20
2023-12-14T14:50:59.729Z,66.46
2023-12-14T14:56:03.585Z,66.83
2023-12-14T15:01:07.481Z,66.78
2023-12-14T15:06:12.982Z,67.08
2023-12-14T15:11:16.808Z,67.15
2023-12-14T15:16:20.672Z,67.97
2023-12-14T15:21:25.650Z,67.83
2023-12-14T15:26:32.693Z,66.64
2023-12-14T15:31:36.359Z,67.21
2023-12-14T15:36:41.432Z,66.65
2023-12-14T15:41:45.230Z,66.47
2023-12-14T15:46:49.263Z,67.13
2023-12-14T15:51:54.374Z,67.28
2023-12-14T15:56:59.950Z,66.95
2023-12-14T16:02:04.360Z,67.08
2023-12-14T16:07:09.623Z,67.44
2023-12-14T16:12:13.223Z,68.40
2023-12-14T16:17:16.819Z,67.45
2023-12-14T16:22:22.257Z,67.83
2023-12-14T16:27:25.883Z,66.96
2023-12-14T16:32:29.857Z,67.72
2023-12-14T16:37:35.278Z,67.01
2023-12-14T16:42:39.162Z,67.42
2023-12-14T16:47:43.820Z,67.39
2023-12-14T16:52:49.120Z,67.53
2023-12-14T16:57:52.881Z,67.87
2023-12-14T17:02:56.670Z,67.55
2023-12-14T17:08:01.809Z,67.94
2023-12-14T17:13:05.615Z,68.13
2023-12-14T17:18:09.465Z,67.81
2023-12-14T17:23:14.998Z,67.19
2023-12-14T17:28:18.916Z,67.34
2023-12-14T17:33:24.130Z,67.56
2023-12-14T17:38:29.312Z,66.85
2023-12-14T17:43:33.141Z,67.80
2023-12-14T17:48:37.763Z,67.44
2023-12-14T17:53:44.961Z,67.11
2023-12-14T17:58:48.989Z,68.07
2023-12-14T18:03:55.234Z,68.42
2023-12-14T18:09:00.553Z,68.37
2023-12-14T18:14:04.294Z,68.37
2023-12-14T18:19:08.516Z,68.06
2023-12-14T18:24:13.520Z,67.45
2023-12-14T18:29:17.170Z,67.81
2023-12-14T18:34:20.883Z,67.95
2023-12-14T18:39:26.181Z,67.95
2023-12-14T18:44:30.101Z,67.53
2023-12-14T18:49:35.138Z,67.45
2023-12-14T18:54:42.198Z,68.41
2023-12-14T18:59:45.792Z,67.60
2023-12-14T19:04:49.705Z,67.96
2023-12-14T19:09:55.781Z,68.39
2023-12-14T19:14:59.463Z,67.10
2023-12-14T19:20:03.386Z,67.80
2023-12-14T19:25:11.961Z,67.55
2023-12-14T19:30:16.813Z,67.12
2023-12-14T19:35:20.645Z,67.94
2023-12-14T19:40:26.660Z,67.72
2023-12-14T19:45:30.499Z,66.90
2023-12-14T19:50:34.092Z,67.84
2023-12-14T19:55:39.347Z,68.11
2023-12-14T20:00:44.606Z,68.04
2023-12-14T20:05:48.935Z,68.07
2023-12-14T20:10:54.199Z,68.37
2023-12-14T20:15:57.959Z,68.31
2023-12-14T20:21:01.752Z,67.83
2023-12-14T20:26:07.061Z,68.30
2023-12-14T20:31:13.253Z,67.79
2023-12-14T20:36:16.926Z,68.51
2023-12-14T20:41:22.167Z,67.97
2023-12-14T20:46:25.991Z,68.42
2023-12-14T20:51:30.914Z,68.26
2023-12-14T20:56:35.955Z,68.19
2023-12-14T21:01:39.772Z,68.58
2023-12-14T21:06:43.543Z,69.31
2023-12-14T21:11:48.850Z,69.35
2023-12-14T21:16:53.085Z,69.13
2023-12-14T21:21:58.714Z,69.09
2023-12-14T21:27:17.753Z,69.57
2023-12-14T21:32:21.750Z,69.11
2023-12-14T21:37:25.440Z,69.90
2023-12-14T21:42:30.548Z,69.70
2023-12-14T21:47:34.402Z,69.62
2023-12-14T21:52:38.434Z,69.74
2023-12-14T21:57:43.529Z,71.24
2023-12-14T22:02:47.357Z,70.66
2023-12-14T22:07:51.079Z,70.20
2023-12-14T22:13:34.606Z,70.32
2023-12-14T22:18:38.618Z,69.73
2023-12-14T22:23:42.216Z,70.22
2023-12-14T22:28:47.484Z,69.99
2023-12-14T22:33:51.372Z,70.07
2023-12-14T22:38:54.943Z,70.10
2023-12-14T22:44:00.158Z,70.15
2023-12-14T22:49:04.249Z,69.93
2023-12-14T22:54:08.065Z,70.45
2023-12-14T22:59:13.117Z,70.70
2023-12-14T23:04:16.843Z,71.12
2023-12-14T23:09:20.635Z,70.90
2023-12-14T23:14:25.986Z,70.85
2023-12-14T23:19:30.026Z,70.86
2023-12-14T23:24:33.608Z,70.98
2023-12-14T23:29:38.797Z,70.39
2023-12-14T23:34:42.364Z,70.65
2023-12-14T23:39:46.068Z,70.80
2023-12-14T23:44:51.283Z,70.52
2023-12-14T23:49:55.219Z,69.88
2023-12-14T23:54:58.894Z,70.64
